Terminal Aerodrome Forecast
Issued by NWS

Home | Current Version | Previous Version | Text Only | Print | Product List | Glossary On
Versions: 1 2 3 4 5 6 7 8 9 10 11 12 13 14
000
FTUS44 KTSA 271932 AAA
TAFBVO
TAF AMD
KBVO 271932Z 2720/2818 16012KT P6SM SCT020
     FM280100 17008KT P6SM SCT025 SCT040
     FM280300 19006KT 4SM BR SCT025 BKN250
     FM281500 20012KT P6SM BKN020=

USA.gov is the U.S. government's official web portal to all federal, state and local government web resources and services.